Terminal Aerodrome Forecast
Issued by NWS Detroit/Pontiac, MI

Home | Current Version | Previous Version | Text Only | Print | Product List | Glossary On
Versions: 1 2 3 4 5 6 7 8 9 10 11 12 13 14 15 16 17 18 19 20 21
629
FTUS43 KDTX 231120
TAFFNT
TAF
KFNT 231120Z 2312/2412 21006KT P6SM -SHRA SCT060 OVC080
     FM231800 19007KT P6SM SCT045 OVC070
      TEMPO 2320/2324 6SM -SHRA BKN045
     FM240200 06004KT P6SM OVC080=

USA.gov is the U.S. government's official web portal to all federal, state and local government web resources and services.